Flight Track Log - Related Links

Times and Time Zones

All times are in EDT time to prevent confusion due to time zone crossing. See the SWA3206 flight status page for this flight to view local times or setup timezone preferences in your user account.

Time Position Orientation Groundspeed Altitude Reporting Facility
EDT Latitude Longitude Course Direction KTS MPH feet Rate Location/Type
Tue 02:05:57 PM 41.8000 -87.7833 251° West 165 190 1,700  Level Chicago TRACON
Tue 02:06:51 PM 41.7833 -87.8500 251° West 233 268 3,000 595 Climbing Chicago TRACON
Tue 02:08:08 PM 41.7633 -87.9453 254° West 239 275 3,000  Level Chicago Center
Tue 02:09:10 PM 41.7617 -88.0294 269° West 233 268 3,000 97 Level Chicago Center
Tue 02:10:12 PM 41.7600 -88.1139 269° West 231 266 3,200 1,500 Climbing Chicago Center
Tue 02:11:14 PM 41.7836 -88.2028 290° West 248 285 6,100 3,387 Climbing Chicago Center
Tue 02:12:16 PM 41.8089 -88.3217 286° West 275 316 10,200 3,435 Climbing Chicago Center
Tue 02:13:18 PM 41.7997 -88.4339 264° West 302 348 13,200 2,516 Climbing Chicago Center
Tue 02:14:20 PM 41.7786 -88.5503 256° West 323 372 15,400 2,032 Climbing Chicago Center
Tue 02:15:22 PM 41.7575 -88.6858 258° West 373 429 17,400 2,468 Climbing Chicago Center
Tue 02:16:24 PM 41.7219 -88.8508 254° West 389 448 20,500 2,613 Climbing Chicago Center
Tue 02:17:26 PM 41.6908 -88.9939 254° West 402 463 22,800 2,129 Climbing Chicago Center
Tue 02:18:28 PM 41.6586 -89.1408 254° West 411 473 24,900 1,984 Climbing Chicago Center
Tue 02:19:30 PM 41.6267 -89.2922 254° West 422 486 26,900 1,742 Climbing Chicago Center
Tue 02:20:32 PM 41.5953 -89.4442 255° West 427 491 28,500 1,500 Climbing Chicago Center
Tue 02:21:34 PM 41.5536 -89.6200 252° West 445 512 30,000 1,645 Climbing Chicago Center
Tue 02:22:36 PM 41.5175 -89.7808 253° West 453 521 31,900 1,790 Climbing Chicago Center
Tue 02:23:38 PM 41.4836 -89.9356 254° West 441 507 33,700 1,500 Climbing Chicago Center
Tue 02:24:40 PM 41.4483 -90.0911 253° West 442 509 35,000 1,104 Climbing Chicago Center
Tue 02:25:43 PM 41.4064 -90.2767 253° West 441 507 36,000 912 Climbing Chicago Center
Tue 02:26:45 PM 41.3697 -90.4350 253° West 448 516 36,900 871 Climbing Chicago Center
Tue 02:27:47 PM 41.3339 -90.5911 253° West 446 513 37,800 532 Climbing Chicago Center
Tue 02:28:49 PM 41.2883 -90.7497 249° West 458 527 38,000 97 Climbing Chicago Center
Tue 02:29:51 PM 41.2444 -90.8994 249° West 442 509 38,000  Level Chicago Center
Tue 02:30:53 PM 41.1903 -91.0817 248° West 442 509 38,000  Level Chicago Center
Tue 02:31:55 PM 41.1458 -91.2317 249° West 441 507 38,000  Level Chicago Center
Tue 02:32:57 PM 41.1008 -91.3814 248° West 438 504 38,000  Level Chicago Center
Tue 02:33:59 PM 41.0564 -91.5297 248° West 437 503 38,000  Level Chicago Center
Tue 02:35:01 PM 41.0114 -91.6778 248° West 436 502 38,000  Level Chicago Center
Tue 02:36:03 PM 40.9572 -91.8544 248° West 437 503 38,000  Level Chicago Center
Tue 02:37:05 PM 40.9122 -91.9981 248° West 430 495 38,000  Level Chicago Center
Tue 02:38:08 PM 40.8675 -92.1447 248° West 433 498 38,000  Level Chicago Center
Tue 02:39:10 PM 40.8325 -92.2931 253° West 431 496 38,000  Level Chicago Center
Tue 02:40:12 PM 40.8122 -92.4469 260° West 431 496 38,000  Level Chicago Center
Tue 02:41:14 PM 40.7872 -92.6300 260° West 429 494 38,000  Level Chicago Center
Tue 02:42:16 PM 40.7661 -92.7828 260° West 429 494 38,000  Level Chicago Center
Tue 02:43:01 PM 40.7492 -92.9039 260° West 429 494 38,000  Level Minneapolis Center
Tue 02:44:03 PM 40.7281 -93.0553 260° West 427 491 38,000  Level Minneapolis Center
Tue 02:45:05 PM 40.7075 -93.2036 260° West 421 484 38,000  Level Minneapolis Center
Tue 02:46:07 PM 40.6861 -93.3525 259° West 420 483 38,000  Level Minneapolis Center
Tue 02:47:09 PM 40.6603 -93.5314 259° West 419 482 38,000  Level Minneapolis Center
Tue 02:48:11 PM 40.6381 -93.6797 259° West 419 482 38,000  Level Minneapolis Center
Tue 02:49:13 PM 40.6164 -93.8292 259° West 420 483 38,000  Level Minneapolis Center
Tue 02:50:15 PM 40.5922 -93.9817 258° West 426 490 38,000  Level Minneapolis Center
Tue 02:51:17 PM 40.5678 -94.1317 258° West 425 489 38,000  Level Minneapolis Center
Tue 02:52:19 PM 40.5367 -94.3114 257° West 425 489 38,000  Level Minneapolis Center
Tue 02:53:21 PM 40.5114 -94.4625 258° West 426 490 38,000  Level Minneapolis Center
Tue 02:54:36 PM 40.4781 -94.6572 257° West 427 491 38,000  Level Minneapolis Center
Tue 02:55:38 PM 40.4511 -94.8094 257° West 426 490 38,000  Level Minneapolis Center
Tue 02:56:39 PM 40.4256 -94.9611 258° West 425 489 38,000  Level Minneapolis Center
Tue 02:57:41 PM 40.3989 -95.1122 257° West 424 488 38,000  Level Minneapolis Center
Tue 02:58:43 PM 40.3717 -95.2653 257° West 427 491 38,000  Level Minneapolis Center
Tue 02:59:57 PM 40.3444 -95.4175 257° West 428 493 38,000  Level Minneapolis Center
Tue 03:01:00 PM 40.3069 -95.6297 257° West 427 491 38,000  Level Minneapolis Center
Tue 03:02:01 PM 40.2794 -95.7803 257° West 425 489 38,000  Level Minneapolis Center
Tue 03:03:03 PM 40.2511 -95.9303 256° West 423 487 38,000  Level Minneapolis Center
Tue 03:04:05 PM 40.2242 -96.0772 257° West 417 480 38,000  Level Minneapolis Center
Tue 03:05:07 PM 40.1961 -96.2269 256° West 421 484 38,000  Level Minneapolis Center
Tue 03:06:09 PM 40.1636 -96.3742 254° West 420 483 38,000  Level Minneapolis Center
Tue 03:07:11 PM 40.1317 -96.5219 254° West 421 484 38,000  Level Minneapolis Center
Tue 03:08:12 PM 40.1003 -96.6717 255° West 425 489 38,000  Level Minneapolis Center
Tue 03:09:14 PM 40.0603 -96.8500 254° West 425 489 38,000  Level Minneapolis Center
Tue 03:10:16 PM 40.0283 -96.9975 254° West 424 488 38,000  Level Minneapolis Center
Tue 03:11:18 PM 39.9944 -97.1469 254° West 426 490 38,000  Level Minneapolis Center
Tue 03:12:19 PM 39.9608 -97.2939 253° West 425 489 38,000  Level Minneapolis Center
Tue 03:13:21 PM 39.9253 -97.4533 254° West 429 494 38,000  Level Minneapolis Center
Tue 03:14:23 PM 39.8919 -97.6014 254° West 427 491 38,000  Level Minneapolis Center
Tue 03:15:25 PM 39.8583 -97.7511 254° West 428 493 38,000  Level Minneapolis Center
Tue 03:16:27 PM 39.8236 -97.8989 253° West 427 491 38,000  Level Minneapolis Center
Tue 03:17:28 PM 39.7900 -98.0461 253° West 425 489 38,000  Level Minneapolis Center
Tue 03:18:30 PM 39.7561 -98.1942 253° West 426 490 38,000  Level Minneapolis Center
Tue 03:19:32 PM 39.7142 -98.3689 253° West 422 486 38,000  Level Minneapolis Center
Tue 03:20:33 PM 39.6803 -98.5142 253° West 422 486 38,000  Level Minneapolis Center
Tue 03:21:35 PM 39.6458 -98.6592 253° West 420 483 38,000  Level Minneapolis Center
Tue 03:22:37 PM 39.6106 -98.8031 252° West 419 482 38,000  Level Minneapolis Center
Tue 03:22:55 PM 39.6044 -98.8319 255° West 416 479 38,000  Level Denver Center
Tue 03:24:09 PM 39.5622 -99.0039 252° West 416 479 38,000  Level Denver Center
Tue 03:25:11 PM 39.5206 -99.1786 253° West 419 482 38,000  Level Denver Center
Tue 03:26:25 PM 39.4844 -99.3211 252° West 417 480 38,000  Level Denver Center
Tue 03:27:27 PM 39.4411 -99.5006 253° West 424 488 38,000  Level Denver Center
Tue 03:28:29 PM 39.4064 -99.6378 252° West 420 483 38,000  Level Denver Center
Tue 03:29:31 PM 39.3667 -99.7992 252° West 420 483 38,000  Level Denver Center
Tue 03:30:44 PM 39.3328 -99.9364 252° West 420 483 38,000  Level Denver Center
Tue 03:31:46 PM 39.2867 -100.1178 252° West 417 480 38,000  Level Denver Center
Tue 03:32:48 PM 39.2533 -100.2517 252° West 409 471 38,000  Level Denver Center
Tue 03:33:50 PM 39.2197 -100.4117 255° West 412 474 38,000  Level Denver Center
Tue 03:34:52 PM 39.1911 -100.5478 255° West 410 472 38,000  Level Denver Center
Tue 03:35:53 PM 39.1572 -100.7044 254° West 408 470 38,000  Level Denver Center
Tue 03:36:55 PM 39.1289 -100.8375 255° West 405 466 38,000  Level Denver Center
Tue 03:37:57 PM 39.1000 -100.9722 255° West 406 467 38,000  Level Denver Center
Tue 03:38:58 PM 39.0658 -101.1294 254° West 410 472 38,000  Level Denver Center
Tue 03:40:00 PM 39.0381 -101.2619 255° West 402 463 38,000  Level Denver Center
Tue 03:41:02 PM 39.0064 -101.4022 254° West 403 464 38,000  Level Denver Center
Tue 03:42:04 PM 38.9725 -101.5531 254° West 397 457 38,000  Level Denver Center
Tue 03:43:05 PM 38.9436 -101.6847 254° West 401 461 38,000  Level Denver Center
Tue 03:44:07 PM 38.9097 -101.8331 254° West 390 449 38,000  Level Denver Center
Tue 03:45:09 PM 38.8814 -101.9608 254° West 389 448 38,000  Level Denver Center
Tue 03:46:11 PM 38.8475 -102.1078 254° West 386 444 38,000  Level Denver Center
Tue 03:47:12 PM 38.8200 -102.2328 254° West 381 438 38,000  Level Denver Center
Tue 03:48:14 PM 38.7906 -102.3569 253° West 381 438 38,000  Level Denver Center
Tue 03:49:15 PM 38.7619 -102.4819 254° West 381 438 38,000  Level Denver Center
Tue 03:50:29 PM 38.7289 -102.6267 254° West 380 437 38,000  Level Denver Center
Tue 03:51:31 PM 38.6914 -102.7928 254° West 384 442 38,000  Level Denver Center
Tue 03:52:33 PM 38.6586 -102.9253 252° West 384 442 38,000  Level Denver Center
Tue 03:53:35 PM 38.6289 -103.0572 254° West 382 440 38,000  Level Denver Center
Tue 03:54:36 PM 38.5972 -103.1886 253° West 382 440 38,000  Level Denver Center
Tue 03:55:38 PM 38.5625 -103.3339 253° West 379 436 38,000  Level Denver Center
Tue 03:56:40 PM 38.5322 -103.4569 253° West 384 442 38,000  Level Denver Center
Tue 03:57:41 PM 38.4964 -103.6031 253° West 387 445 38,000  Level Denver Center
Tue 03:58:43 PM 38.4667 -103.7292 253° West 389 448 38,000  Level Denver Center
Tue 03:59:45 PM 38.4306 -103.8781 253° West 393 452 38,000  Level Denver Center
Tue 04:00:46 PM 38.4039 -103.9836 252° West 391 450 38,000  Level Denver Center
Tue 04:01:48 PM 38.3650 -104.1447 253° West 396 456 38,000  Level Denver Center
Tue 04:02:50 PM 38.3319 -104.2786 253° West 392 451 38,000  Level Denver Center
Tue 04:03:52 PM 38.2944 -104.4247 252° West 388 447 38,000  Level Denver Center
Tue 04:04:54 PM 38.2494 -104.5406 244° Southwest 383 441 38,000  Level Denver Center
Tue 04:05:55 PM 38.1953 -104.6772 243° Southwest 387 445 38,000  Level Denver Center
Tue 04:06:57 PM 38.1494 -104.7933 243° Southwest 387 445 38,000  Level Denver Center
Tue 04:07:59 PM 38.1017 -104.9083 242° Southwest 385 443 38,000  Level Denver Center
Tue 04:09:01 PM 38.0483 -105.0428 243° Southwest 384 442 38,000  Level Denver Center
Tue 04:10:02 PM 38.0014 -105.1581 243° Southwest 383 441 38,000  Level Denver Center
Tue 04:11:04 PM 37.9469 -105.2908 243° Southwest 380 437 38,000  Level Denver Center
Tue 04:12:06 PM 37.9011 -105.4028 243° Southwest 376 433 38,000  Level Denver Center
Tue 04:13:07 PM 37.8464 -105.5331 242° Southwest 376 433 38,000  Level Denver Center
Tue 04:14:09 PM 37.8089 -105.6272 243° Southwest 376 433 38,000  Level Denver Center
Tue 04:15:11 PM 37.7467 -105.7786 243° Southwest 377 434 38,000  Level Denver Center
Tue 04:16:24 PM 37.6972 -105.8922 241° Southwest 385 443 38,000  Level Denver Center
Tue 04:17:26 PM 37.6347 -106.0442 243° Southwest 384 442 38,000  Level Denver Center
Tue 04:18:28 PM 37.5872 -106.1581 242° Southwest 384 442 38,000  Level Denver Center
Tue 04:19:29 PM 37.5375 -106.2761 242° Southwest 385 443 38,000  Level Denver Center
Tue 04:20:31 PM 37.4819 -106.4067 242° Southwest 379 436 38,000  Level Denver Center
Tue 04:21:33 PM 37.4344 -106.5181 242° Southwest 377 434 38,000  Level Denver Center
Tue 04:22:34 PM 37.3797 -106.6494 242° Southwest 381 438 38,000  Level Denver Center
Tue 04:23:36 PM 37.3311 -106.7636 242° Southwest 385 443 38,000  Level Denver Center
Tue 04:24:38 PM 37.2825 -106.8781 242° Southwest 386 444 38,000  Level Denver Center
Tue 04:25:39 PM 37.2256 -107.0103 242° Southwest 386 444 38,000  Level Denver Center
Tue 04:26:41 PM 37.1781 -107.1222 242° Southwest 380 437 38,000  Level Denver Center
Tue 04:27:42 PM 37.1219 -107.2489 241° Southwest 376 433 38,000  Level Denver Center
Tue 04:28:44 PM 37.0742 -107.3581 241° Southwest 374 430 38,000  Level Denver Center
Tue 04:29:46 PM 37.0194 -107.4844 242° Southwest 372 428 38,000  Level Denver Center
Tue 04:30:47 PM 36.9708 -107.5933 241° Southwest 373 429 38,000  Level Denver Center
Tue 04:31:48 PM 36.9317 -107.6850 242° Southwest 373 429 38,000  Level Denver Center
Tue 04:32:50 PM 36.8681 -107.8306 241° Southwest 373 429 38,000  Level Denver Center
Tue 04:33:52 PM 36.8194 -107.9386 241° Southwest 374 430 38,000  Level Denver Center
Tue 04:35:06 PM 36.7636 -108.0647 241° Southwest 373 429 38,000  Level Denver Center
Tue 04:36:08 PM 36.7078 -108.1931 242° Southwest 376 433 38,000  Level Denver Center
Tue 04:37:09 PM 36.6542 -108.3219 243° Southwest 376 433 38,000  Level Denver Center
Tue 04:38:10 PM 36.6150 -108.4133 242° Southwest 375 432 38,000  Level Denver Center
Tue 04:39:13 PM 36.5522 -108.5594 242° Southwest 375 432 38,000  Level Denver Center
Tue 04:40:14 PM 36.5053 -108.6683 242° Southwest 375 432 38,000  Level Denver Center
Tue 04:41:16 PM 36.4506 -108.7950 242° Southwest 375 432 38,000  Level Denver Center
Tue 04:42:17 PM 36.4031 -108.9028 241° Southwest 374 430 38,000  Level Denver Center
Tue 04:43:19 PM 36.3486 -109.0275 242° Southwest 371 427 38,000  Level Denver Center
Tue 04:44:21 PM 36.3019 -109.1344 242° Southwest 372 428 38,000  Level Denver Center
Tue 04:45:22 PM 36.2464 -109.2600 241° Southwest 374 430 38,000  Level Denver Center
Tue 04:46:24 PM 36.1992 -109.3667 241° Southwest 372 428 38,000  Level Denver Center
Tue 04:47:26 PM 36.1522 -109.4744 242° Southwest 372 428 38,000  Level Denver Center
Tue 04:48:27 PM 36.0956 -109.6017 241° Southwest 377 434 38,000  Level Denver Center
Tue 04:49:29 PM 36.0481 -109.7108 242° Southwest 379 436 38,000  Level Denver Center
Tue 04:50:43 PM 35.9911 -109.8361 241° Southwest 375 432 38,000  Level Denver Center
Tue 04:51:45 PM 35.9275 -109.9783 241° Southwest 372 428 38,000  Level Denver Center
Tue 04:52:46 PM 35.8792 -110.0881 241° Southwest 377 434 38,000  Level Denver Center
Tue 04:53:23 PM 35.8425 -110.1586 237° Southwest 378 435 38,000  Level Albuquerque Center
Tue 04:54:25 PM 35.7928 -110.2678 241° Southwest 380 437 38,000  Level Albuquerque Center
Tue 04:55:26 PM 35.7347 -110.3947 241° Southwest 382 440 38,000  Level Albuquerque Center
Tue 04:56:28 PM 35.6836 -110.5050 240° Southwest 386 444 38,000  Level Albuquerque Center
Tue 04:57:30 PM 35.6247 -110.6325 240° Southwest 385 443 38,000  Level Albuquerque Center
Tue 04:58:32 PM 35.5767 -110.7447 242° Southwest 387 445 38,000  Level Albuquerque Center
Tue 04:59:33 PM 35.5250 -110.8528 240° Southwest 385 443 38,000  Level Albuquerque Center
Tue 05:00:35 PM 35.4658 -110.9786 240° Southwest 382 440 38,000  Level Albuquerque Center
Tue 05:01:37 PM 35.4164 -111.0867 241° Southwest 380 437 38,000  Level Albuquerque Center
Tue 05:02:39 PM 35.3606 -111.2131 242° Southwest 378 435 38,000  Level Albuquerque Center
Tue 05:03:41 PM 35.3150 -111.3069 239° Southwest 371 427 38,000  Level Albuquerque Center
Tue 05:04:42 PM 35.2650 -111.4217 242° Southwest 379 436 38,000  Level Albuquerque Center
Tue 05:05:44 PM 35.2019 -111.5569 240° Southwest 381 438 38,000  Level Albuquerque Center
Tue 05:06:46 PM 35.1469 -111.6706 239° Southwest 387 445 38,000  Level Albuquerque Center
Tue 05:07:48 PM 35.0933 -111.7717 237° Southwest 389 448 38,000  Level Albuquerque Center
Tue 05:08:50 PM 35.0206 -111.9050 236° Southwest 393 452 38,000  Level Albuquerque Center
Tue 05:09:51 PM 34.9583 -112.0178 236° Southwest 399 459 38,000  Level Albuquerque Center
Tue 05:10:53 PM 34.8972 -112.1275 236° Southwest 395 455 38,000  Level Albuquerque Center
Tue 05:11:55 PM 34.8375 -112.2358 236° Southwest 390 449 38,000  Level Albuquerque Center
Tue 05:12:57 PM 34.7786 -112.3439 236° Southwest 385 443 38,000  Level Albuquerque Center
Tue 05:13:58 PM 34.7186 -112.4514 236° Southwest 384 442 38,000  Level Albuquerque Center
Tue 05:15:00 PM 34.6792 -112.5711 248° West 385 443 38,000  Level Albuquerque Center
Tue 05:16:02 PM 34.6400 -112.7181 252° West 382 440 38,000  Level Albuquerque Center
Tue 05:17:04 PM 34.6075 -112.8411 252° West 383 441 38,000  Level Albuquerque Center
Tue 05:18:06 PM 34.5742 -112.9647 252° West 384 442 38,000  Level Albuquerque Center
Tue 05:19:07 PM 34.5411 -113.0872 252° West 384 442 38,000  Level Albuquerque Center
Tue 05:20:09 PM 34.5094 -113.2081 252° West 379 436 38,000  Level Albuquerque Center
Tue 05:21:11 PM 34.4767 -113.3286 252° West 378 435 38,000  Level Albuquerque Center
Tue 05:22:13 PM 34.4439 -113.4486 252° West 377 434 38,000  Level Albuquerque Center
Tue 05:23:15 PM 34.4103 -113.5708 252° West 375 432 38,000  Level Albuquerque Center
Tue 05:24:17 PM 34.3694 -113.7194 252° West 377 434 38,000  Level Albuquerque Center
Tue 05:25:19 PM 34.3350 -113.8414 251° West 380 437 38,000  Level Albuquerque Center
Tue 05:26:20 PM 34.3025 -113.9619 252° West 380 437 38,000  Level Albuquerque Center
Tue 05:27:22 PM 34.2692 -114.0836 252° West 381 438 38,000 -484 Level Albuquerque Center
Tue 05:28:24 PM 34.2353 -114.2036 251° West 378 435 37,000 -968 Descending Albuquerque Center
Tue 05:29:26 PM 34.2028 -114.3233 252° West 376 433 36,000 -919 Descending Albuquerque Center
Tue 05:30:28 PM 34.1694 -114.4400 251° West 372 428 35,100 -977 Descending Albuquerque Center
Tue 05:30:52 PM 34.1597 -114.4811 254° West 363 418 34,600 -2,860 Descending Los Angeles Center
Tue 05:31:54 PM 34.1194 -114.6181 250° West 362 417 31,000 -2,758 Descending Los Angeles Center
Tue 05:32:56 PM 34.0833 -114.7275 248° West 355 409 28,900 -1,463 Descending Los Angeles Center
Tue 05:33:57 PM 34.0414 -114.8211 242° Southwest 326 375 28,000 -439 Descending Los Angeles Center
Tue 05:34:59 PM 34.0017 -114.9125 242° Southwest 313 360 28,000  Level Los Angeles Center
Tue 05:36:01 PM 33.9592 -115.0031 241° Southwest 313 360 28,000  Level Los Angeles Center
Tue 05:37:03 PM 33.9197 -115.0958 243° Southwest 312 359 28,000 -145 Level Los Angeles Center
Tue 05:38:05 PM 33.8694 -115.2081 242° Southwest 317 365 27,700 -662 Descending Los Angeles Center
Tue 05:39:19 PM 33.8200 -115.3172 241° Southwest 312 359 26,500 -971 Descending Los Angeles Center
Tue 05:40:21 PM 33.7786 -115.4097 242° Southwest 314 361 25,500 -871 Descending Los Angeles Center
Tue 05:41:23 PM 33.7467 -115.4819 242° Southwest 309 356 24,700 -726 Descending Los Angeles Center
Tue 05:42:25 PM 33.6975 -115.5906 241° Southwest 308 354 24,000 -339 Descending Los Angeles Center
Tue 05:43:27 PM 33.6575 -115.6792 242° Southwest 303 349 24,000  Level Los Angeles Center
Tue 05:44:29 PM 33.6078 -115.7861 241° Southwest 306 352 24,000  Level Los Angeles Center
Tue 05:45:31 PM 33.5575 -115.8703 234° Southwest 311 358 24,000 -49 Level Los Angeles Center
Tue 05:46:32 PM 33.5086 -115.9556 236° Southwest 312 359 23,900 -488 Descending Los Angeles Center
Tue 05:47:34 PM 33.4397 -116.0264 221° Southwest 325 374 23,000 -871 Descending Los Angeles Center
Tue 05:48:36 PM 33.3647 -116.0992 219° Southwest 343 395 22,100 -1,548 Descending Los Angeles Center
Tue 05:49:38 PM 33.2894 -116.1711 219° Southwest 348 400 19,800 -2,323 Descending Los Angeles Center
Tue 05:50:40 PM 33.2058 -116.2528 219° Southwest 328 377 17,300 -2,177 Descending Los Angeles Center
Tue 05:51:42 PM 33.1358 -116.3189 218° Southwest 323 372 15,300 -1,854 Descending Los Angeles Center
Tue 05:52:43 PM 33.0692 -116.3844 219° Southwest 317 365 13,500 -1,610 Descending Los Angeles Center
Tue 05:53:45 PM 32.9981 -116.4489 217° Southwest 309 356 12,000 -726 Descending Los Angeles Center
Tue 05:54:47 PM 32.9261 -116.4889 205° Southwest 286 329 12,000 -339 Level Los Angeles Center
Tue 05:55:49 PM 32.8494 -116.5356 207° Southwest 283 326 11,300 -878 Descending Los Angeles Center
Tue 05:56:50 PM 32.8169 -116.5889 234° Southwest 260 299 10,200 -1,317 Descending Los Angeles Center
Tue 05:57:52 PM 32.7781 -116.6692 240° Southwest 238 274 8,600 -1,355 Descending Los Angeles Center
Tue 05:58:54 PM 32.7458 -116.7375 241° Southwest 236 272 7,400 -1,024 Descending Los Angeles Center
Tue 05:59:55 PM 32.7206 -116.7903 240° Southwest 234 269 6,500 -1,220 Descending Los Angeles Center
Tue 06:00:52 PM 32.6833 -116.8833 245° Southwest 232 267 5,000 -1,231 Descending Southern California TRACON
Tue 06:01:52 PM 32.6833 -116.9500 270° West 228 262 4,100 -1,050 Descending Southern California TRACON
Tue 06:02:52 PM 32.7000 -117.0167 287° West 225 259 2,900 -850 Descending Southern California TRACON
Tue 06:03:52 PM 32.7000 -117.0833 270° West 171 197 2,400 -950 Descending Southern California TRACON
Tue 06:04:52 PM 32.7167 -117.1333 292° West 143 165 1,000 -1,000 Descending Southern California TRACON
Tue 06:05:52 PM 32.7333 -117.1667 301° West 140 161 400 -640 Descending Southern California TRACON
Tue 06:06:07 PM 32.7328 -117.1814 267° West 146 168 200 -800 Descending Los Angeles Center
Tue 06:08:00 PM 32.7333 -117.1833 281° West  Level FlightAware Approximate

Login

Don't have an account? Register now (free) for customized features, flight alerts, and more!